createdAt,value
2022-08-08T00:00:55.703Z,90.20
2022-08-08T00:03:13.250Z,90.40
2022-08-08T00:06:05.332Z,90.30
2022-08-08T00:08:32.241Z,90.70
2022-08-08T00:11:13.180Z,91.10
2022-08-08T00:14:17.207Z,91.20
2022-08-08T00:17:22.646Z,90.70
2022-08-08T00:20:01.113Z,90.60
2022-08-08T00:22:52.334Z,90.80
2022-08-08T00:25:44.805Z,90.90
2022-08-08T00:28:34.397Z,91.60
2022-08-08T00:32:19.949Z,91.70
2022-08-08T00:34:46.625Z,91.60
2022-08-08T00:37:47.332Z,92.00
2022-08-08T00:41:06.775Z,92.00
2022-08-08T00:43:25.567Z,92.40
2022-08-08T00:46:22.099Z,92.80
2022-08-08T00:49:22.808Z,92.70
2022-08-08T00:52:04.881Z,93.20
2022-08-08T00:54:37.403Z,93.20
2022-08-08T00:57:56.884Z,93.00
2022-08-08T01:00:28.107Z,92.90
2022-08-08T01:03:58.370Z,92.70
2022-08-08T01:06:27.261Z,92.50
2022-08-08T01:09:36.290Z,93.10
2022-08-08T01:12:36.600Z,93.00
2022-08-08T01:15:54.207Z,93.10
2022-08-08T01:18:53.067Z,93.70
2022-08-08T01:22:07.237Z,93.70
2022-08-08T01:25:00.386Z,93.70
2022-08-08T01:27:49.275Z,93.30
2022-08-08T01:30:53.715Z,92.90
2022-08-08T01:34:00.620Z,93.10
2022-08-08T01:37:13.814Z,94.10
2022-08-08T01:40:05.948Z,94.00
2022-08-08T01:42:52.981Z,93.90
2022-08-08T01:45:37.730Z,94.00
2022-08-08T01:48:33.591Z,94.70
2022-08-08T01:52:51.505Z,95.00
2022-08-08T01:55:44.890Z,95.60
2022-08-08T01:58:04.271Z,95.40
2022-08-08T02:00:31.792Z,95.60
2022-08-08T02:03:55.404Z,95.20
2022-08-08T02:06:32.618Z,94.90
2022-08-08T02:10:01.727Z,95.10
2022-08-08T02:12:37.490Z,95.10
2022-08-08T02:15:21.453Z,95.10
2022-08-08T02:18:10.486Z,95.40
2022-08-08T02:21:18.258Z,95.60
2022-08-08T02:24:06.080Z,95.90
2022-08-08T02:26:44.162Z,96.40
2022-08-08T02:29:46.828Z,96.90
2022-08-08T02:32:27.356Z,96.90
2022-08-08T02:35:10.753Z,97.80
2022-08-08T02:38:25.495Z,97.60
2022-08-08T02:41:58.163Z,97.90
2022-08-08T02:44:39.153Z,97.90
2022-08-08T02:47:58.108Z,97.70
2022-08-08T02:51:11.711Z,97.00
2022-08-08T02:54:30.063Z,97.70
2022-08-08T02:57:24.148Z,98.10
2022-08-08T03:00:26.939Z,98.30
2022-08-08T03:05:01.726Z,98.40
2022-08-08T03:06:34.525Z,98.10
2022-08-08T03:09:41.397Z,98.60
2022-08-08T03:12:26.664Z,99.40
2022-08-08T03:15:57.498Z,99.10
2022-08-08T03:18:31.110Z,99.20
2022-08-08T03:20:58.468Z,99.00
2022-08-08T03:23:39.877Z,99.40
2022-08-08T03:26:15.376Z,99.90
2022-08-08T03:28:51.298Z,99.90
2022-08-08T03:32:06.617Z,99.90
2022-08-08T03:34:28.317Z,99.90
2022-08-08T03:36:54.987Z,99.90
2022-08-08T03:39:23.279Z,99.90
2022-08-08T03:42:28.560Z,99.90
2022-08-08T03:44:38.580Z,99.90
2022-08-08T03:47:14.096Z,99.90
2022-08-08T03:50:00.381Z,99.90
2022-08-08T03:52:30.690Z,99.90
2022-08-08T03:55:09.782Z,99.90
2022-08-08T03:58:32.955Z,99.90
2022-08-08T04:01:01.889Z,99.90
2022-08-08T04:03:58.388Z,99.90
2022-08-08T04:06:29.873Z,99.90
2022-08-08T04:09:10.777Z,99.90
2022-08-08T04:11:58.062Z,99.90
2022-08-08T04:14:34.458Z,99.90
2022-08-08T04:17:04.256Z,99.90
2022-08-08T04:19:36.902Z,99.90
2022-08-08T04:22:04.126Z,99.90
2022-08-08T04:24:31.322Z,99.90
2022-08-08T04:26:59.765Z,99.90
2022-08-08T04:29:36.875Z,99.90
2022-08-08T04:32:06.853Z,99.90
2022-08-08T04:34:49.400Z,99.90
2022-08-08T04:37:20.774Z,99.90
2022-08-08T04:40:06.917Z,99.90
2022-08-08T04:42:36.658Z,99.90
2022-08-08T04:45:05.148Z,99.90
2022-08-08T04:47:32.129Z,99.90
2022-08-08T04:50:06.047Z,99.90
2022-08-08T04:52:33.934Z,99.90
2022-08-08T04:55:02.564Z,99.90
2022-08-08T04:57:31.862Z,99.90
2022-08-08T05:00:02.293Z,99.90
2022-08-08T05:02:30.934Z,99.90
2022-08-08T05:04:59.621Z,99.90
2022-08-08T05:07:38.183Z,99.90
2022-08-08T05:10:12.976Z,99.90
2022-08-08T05:12:53.486Z,99.90
2022-08-08T05:16:48.386Z,99.90
2022-08-08T05:18:13.725Z,99.90
2022-08-08T05:20:50.126Z,99.90
2022-08-08T05:23:19.395Z,99.90
2022-08-08T05:25:48.882Z,99.90
2022-08-08T05:28:16.626Z,99.90
2022-08-08T05:31:19.175Z,99.90
2022-08-08T05:33:50.071Z,99.90
2022-08-08T05:36:25.557Z,99.90
2022-08-08T05:38:57.044Z,99.90
2022-08-08T05:41:25.976Z,99.90
2022-08-08T05:44:04.873Z,99.90
2022-08-08T05:46:32.908Z,99.90
2022-08-08T05:49:00.589Z,99.90
2022-08-08T05:51:47.894Z,99.90
2022-08-08T05:54:42.859Z,99.90
2022-08-08T05:57:04.648Z,99.90
2022-08-08T05:59:59.683Z,99.90
2022-08-08T06:02:48.064Z,99.60
2022-08-08T06:05:34.381Z,98.90
2022-08-08T06:08:09.172Z,98.50
2022-08-08T06:10:40.848Z,98.50
2022-08-08T06:13:08.733Z,98.50
2022-08-08T06:15:51.051Z,97.10
2022-08-08T06:18:24.895Z,97.30
2022-08-08T06:20:57.283Z,97.30
2022-08-08T06:23:29.148Z,96.40
2022-08-08T06:26:43.577Z,95.30
2022-08-08T06:29:26.623Z,95.50
2022-08-08T06:32:10.016Z,94.40
2022-08-08T06:34:39.831Z,93.60
2022-08-08T06:37:24.744Z,92.90
2022-08-08T06:39:57.468Z,93.00
2022-08-08T06:42:30.350Z,96.30
2022-08-08T06:44:57.226Z,97.00
2022-08-08T06:47:33.423Z,93.60
2022-08-08T06:50:12.803Z,93.70
2022-08-08T06:52:47.891Z,94.20
2022-08-08T06:55:18.183Z,92.60
2022-08-08T06:57:56.338Z,93.30
2022-08-08T07:00:30.289Z,93.60
2022-08-08T07:03:00.853Z,92.20
2022-08-08T07:05:40.215Z,91.80
2022-08-08T07:08:19.763Z,91.50
2022-08-08T07:10:50.065Z,90.10
2022-08-08T07:13:18.670Z,89.40
2022-08-08T07:16:06.178Z,89.10
2022-08-08T07:19:07.763Z,88.10
2022-08-08T07:22:00.539Z,88.40
2022-08-08T07:24:46.682Z,89.40
2022-08-08T07:27:18.185Z,88.80
2022-08-08T07:30:02.156Z,86.30
2022-08-08T07:32:34.467Z,87.80
2022-08-08T07:35:06.415Z,84.40
2022-08-08T07:37:49.634Z,84.20
2022-08-08T07:40:29.192Z,85.00
2022-08-08T07:43:01.083Z,83.70
2022-08-08T07:45:34.884Z,84.10
2022-08-08T07:48:14.638Z,81.80
2022-08-08T07:50:42.977Z,83.10
2022-08-08T07:54:01.333Z,81.70
2022-08-08T07:56:36.285Z,81.00
2022-08-08T07:59:15.619Z,78.90
2022-08-08T08:02:35.147Z,79.60
2022-08-08T08:04:46.702Z,78.20
2022-08-08T08:07:17.110Z,77.30
2022-08-08T08:09:43.875Z,76.90
2022-08-08T08:12:31.457Z,76.00
2022-08-08T08:15:05.066Z,76.60
2022-08-08T08:17:44.968Z,75.90
2022-08-08T08:20:17.256Z,74.60
2022-08-08T08:22:43.922Z,74.90
2022-08-08T08:25:10.632Z,74.50
2022-08-08T08:27:37.468Z,74.40
2022-08-08T08:30:05.817Z,73.70
2022-08-08T08:32:36.615Z,74.20
2022-08-08T08:35:08.418Z,71.90
2022-08-08T08:37:53.030Z,70.00
2022-08-08T08:40:22.499Z,71.40
2022-08-08T08:42:50.058Z,70.60
2022-08-08T08:45:22.950Z,68.90
2022-08-08T08:47:54.901Z,69.00
2022-08-08T08:50:32.080Z,67.00
2022-08-08T08:53:28.387Z,67.40
2022-08-08T08:55:52.958Z,68.00
2022-08-08T08:58:32.905Z,67.00
2022-08-08T09:01:09.634Z,66.20
2022-08-08T09:03:46.786Z,65.90
2022-08-08T09:06:44.827Z,65.30
2022-08-08T09:09:39.792Z,63.20
2022-08-08T09:12:16.781Z,62.00
2022-08-08T09:14:48.500Z,63.00
2022-08-08T09:17:19.187Z,60.80
2022-08-08T09:21:59.697Z,60.80
2022-08-08T09:22:39.424Z,59.80
2022-08-08T09:25:07.900Z,58.60
2022-08-08T09:27:41.894Z,57.70
2022-08-08T09:30:25.961Z,56.90
2022-08-08T09:33:12.663Z,57.20
2022-08-08T09:35:50.089Z,56.50
2022-08-08T09:38:53.725Z,56.10
2022-08-08T09:41:55.018Z,56.10
2022-08-08T09:44:49.695Z,54.40
2022-08-08T09:48:02.153Z,54.10
2022-08-08T09:50:13.861Z,54.10
2022-08-08T09:52:57.650Z,54.60
2022-08-08T09:55:51.491Z,53.20
2022-08-08T09:58:40.271Z,51.50
2022-08-08T10:01:15.067Z,51.30
2022-08-08T10:04:02.484Z,52.00
2022-08-08T10:06:32.583Z,52.90
2022-08-08T10:09:00.149Z,51.90
2022-08-08T10:12:27.632Z,51.40
2022-08-08T10:14:28.293Z,51.30
2022-08-08T10:17:56.495Z,51.40
2022-08-08T10:19:59.836Z,50.20
2022-08-08T10:22:32.243Z,49.60
2022-08-08T10:25:04.506Z,48.40
2022-08-08T10:27:41.411Z,48.70
2022-08-08T10:30:09.044Z,49.00
2022-08-08T10:32:54.228Z,48.40
2022-08-08T10:36:07.700Z,49.10
2022-08-08T10:38:16.225Z,50.20
2022-08-08T10:40:45.576Z,47.80
2022-08-08T10:43:12.694Z,47.60
2022-08-08T10:45:56.643Z,47.60
2022-08-08T10:48:56.969Z,46.70
2022-08-08T10:51:50.814Z,46.00
2022-08-08T10:54:25.351Z,46.90
2022-08-08T10:57:03.791Z,46.70
2022-08-08T10:59:31.325Z,47.50
2022-08-08T11:02:07.313Z,46.80
2022-08-08T11:04:44.961Z,45.20
2022-08-08T11:08:37.054Z,44.50
2022-08-08T11:10:37.145Z,44.90
2022-08-08T11:13:28.442Z,45.40
2022-08-08T11:16:00.288Z,46.10
2022-08-08T11:18:30.066Z,45.60
2022-08-08T11:21:00.875Z,43.70
2022-08-08T11:23:40.652Z,43.60
2022-08-08T11:26:07.553Z,42.70
2022-08-08T11:28:38.759Z,42.70
2022-08-08T11:31:09.448Z,42.90
2022-08-08T11:33:53.299Z,42.50
2022-08-08T11:36:27.811Z,42.80
2022-08-08T11:38:56.459Z,43.20
2022-08-08T11:41:27.908Z,43.00
2022-08-08T11:43:59.722Z,41.40
2022-08-08T11:46:31.729Z,41.00
2022-08-08T11:49:04.191Z,40.90
2022-08-08T11:51:40.135Z,40.50
2022-08-08T11:54:31.091Z,40.70
2022-08-08T11:57:14.658Z,41.40
2022-08-08T12:00:02.689Z,41.80
2022-08-08T12:02:33.880Z,41.50
2022-08-08T12:05:12.397Z,41.90
2022-08-08T12:07:54.191Z,42.70
2022-08-08T12:10:28.732Z,41.70
2022-08-08T12:13:10.517Z,40.90
2022-08-08T12:15:42.832Z,41.10
2022-08-08T12:18:27.366Z,42.60
2022-08-08T12:20:56.854Z,41.90
2022-08-08T12:23:43.151Z,40.90
2022-08-08T12:26:27.321Z,41.70
2022-08-08T12:29:02.622Z,41.70
2022-08-08T12:31:39.371Z,41.20
2022-08-08T12:34:36.762Z,39.80
2022-08-08T12:37:05.498Z,40.00
2022-08-08T12:40:00.005Z,39.50
2022-08-08T12:42:22.987Z,40.60
2022-08-08T12:45:54.691Z,40.10
2022-08-08T12:48:18.229Z,40.80
2022-08-08T12:50:58.238Z,39.80
2022-08-08T12:53:37.738Z,39.30
2022-08-08T12:56:18.770Z,39.30
2022-08-08T12:58:49.499Z,39.00
2022-08-08T13:01:16.527Z,38.60
2022-08-08T13:03:51.920Z,39.10
2022-08-08T13:06:20.145Z,38.20
2022-08-08T13:08:53.853Z,38.30
2022-08-08T13:11:28.654Z,38.20
2022-08-08T13:14:15.444Z,38.60
2022-08-08T13:16:43.040Z,39.00
2022-08-08T13:19:17.934Z,38.10
2022-08-08T13:21:53.144Z,38.10
2022-08-08T13:24:41.987Z,37.90
2022-08-08T13:27:16.155Z,37.80
2022-08-08T13:29:48.606Z,37.80
2022-08-08T13:32:17.127Z,36.90
2022-08-08T13:34:56.569Z,37.30
2022-08-08T13:37:51.634Z,38.50
2022-08-08T13:40:17.953Z,38.50
2022-08-08T13:42:55.577Z,38.10
2022-08-08T13:45:24.087Z,37.60
2022-08-08T13:48:01.701Z,37.80
2022-08-08T13:50:39.377Z,37.40
2022-08-08T13:53:24.264Z,37.80
2022-08-08T13:56:02.698Z,38.10
2022-08-08T13:58:30.162Z,37.20
2022-08-08T14:00:57.240Z,38.00
2022-08-08T14:03:53.457Z,37.40
2022-08-08T14:06:32.511Z,37.80
2022-08-08T14:09:00.421Z,37.10
2022-08-08T14:11:47.875Z,36.20
2022-08-08T14:14:20.451Z,36.80
2022-08-08T14:16:51.038Z,36.50
2022-08-08T14:19:22.841Z,36.20
2022-08-08T14:22:23.526Z,37.80
2022-08-08T14:25:02.558Z,36.50
2022-08-08T14:27:43.363Z,36.60
2022-08-08T14:30:34.421Z,36.20
2022-08-08T14:33:01.669Z,37.20
2022-08-08T14:35:35.743Z,37.00
2022-08-08T14:38:33.043Z,36.60
2022-08-08T14:40:59.565Z,36.80
2022-08-08T14:44:01.954Z,37.10
2022-08-08T14:46:31.180Z,37.00
2022-08-08T14:49:20.763Z,36.40
2022-08-08T14:52:07.469Z,36.60
2022-08-08T14:54:44.383Z,36.20
2022-08-08T14:57:11.139Z,37.00
2022-08-08T14:59:50.077Z,36.50
2022-08-08T15:02:25.560Z,37.60
2022-08-08T15:04:57.537Z,37.10
2022-08-08T15:07:40.112Z,37.30
2022-08-08T15:10:09.344Z,37.50
2022-08-08T15:12:37.236Z,36.70
2022-08-08T15:15:09.090Z,36.80
2022-08-08T15:17:40.696Z,36.20
2022-08-08T15:20:13.973Z,37.50
2022-08-08T15:22:42.312Z,37.00
2022-08-08T15:25:17.635Z,36.60
2022-08-08T15:28:03.347Z,37.90
2022-08-08T15:30:43.398Z,37.30
2022-08-08T15:33:14.382Z,37.40
2022-08-08T15:35:59.197Z,36.70
2022-08-08T15:38:26.419Z,37.10
2022-08-08T15:40:53.098Z,37.30
2022-08-08T15:43:36.293Z,37.70
2022-08-08T15:46:03.901Z,37.50
2022-08-08T15:48:30.939Z,36.80
2022-08-08T15:51:06.388Z,35.90
2022-08-08T15:53:49.004Z,36.70
2022-08-08T15:56:20.044Z,36.70
2022-08-08T15:58:48.906Z,36.20
2022-08-08T16:01:16.917Z,36.50
2022-08-08T16:03:45.973Z,36.10
2022-08-08T16:06:27.690Z,36.00
2022-08-08T16:09:02.263Z,36.50
2022-08-08T16:13:11.360Z,36.80
2022-08-08T16:14:32.820Z,36.70
2022-08-08T16:17:00.939Z,36.20
2022-08-08T16:19:30.094Z,37.00
2022-08-08T16:21:57.588Z,37.30
2022-08-08T16:24:24.723Z,37.50
2022-08-08T16:26:51.427Z,36.70
2022-08-08T16:29:37.071Z,36.50
2022-08-08T16:32:11.621Z,36.60
2022-08-08T16:34:47.641Z,37.00
2022-08-08T16:37:16.129Z,37.00
2022-08-08T16:40:02.347Z,37.40
2022-08-08T16:42:30.085Z,36.90
2022-08-08T16:44:59.510Z,37.10
2022-08-08T16:47:40.530Z,37.00
2022-08-08T16:50:15.733Z,37.90
2022-08-08T16:55:06.012Z,37.70
2022-08-08T16:55:55.794Z,37.40
2022-08-08T16:58:20.806Z,37.80
2022-08-08T17:00:48.651Z,38.50
2022-08-08T17:03:16.511Z,39.00
2022-08-08T17:05:53.446Z,38.30
2022-08-08T17:08:20.551Z,38.00
2022-08-08T17:10:57.580Z,38.00
2022-08-08T17:13:27.449Z,37.80
2022-08-08T17:16:15.177Z,38.50
2022-08-08T17:18:42.525Z,38.00
2022-08-08T17:21:10.547Z,38.90
2022-08-08T17:24:01.580Z,38.50
2022-08-08T17:26:28.945Z,38.40
2022-08-08T17:28:57.221Z,38.00
2022-08-08T17:31:45.786Z,37.80
2022-08-08T17:34:48.200Z,37.90
2022-08-08T17:37:03.173Z,38.70
2022-08-08T17:40:02.981Z,38.00
2022-08-08T17:42:19.401Z,38.10
2022-08-08T17:44:49.082Z,39.10
2022-08-08T17:47:24.258Z,38.70
2022-08-08T17:50:01.074Z,38.50
2022-08-08T17:52:34.275Z,39.70
2022-08-08T17:55:05.496Z,40.10
2022-08-08T17:57:49.997Z,40.30
2022-08-08T18:00:21.312Z,40.50
2022-08-08T18:03:08.252Z,40.40
2022-08-08T18:05:48.315Z,40.50
2022-08-08T18:08:37.599Z,41.20
2022-08-08T18:11:06.591Z,41.90
2022-08-08T18:13:34.972Z,42.70
2022-08-08T18:16:09.043Z,41.60
2022-08-08T18:18:39.304Z,41.50
2022-08-08T18:21:10.751Z,41.50
2022-08-08T18:23:55.760Z,41.90
2022-08-08T18:26:22.889Z,43.60
2022-08-08T18:28:54.746Z,44.10
2022-08-08T18:31:22.292Z,44.70
2022-08-08T18:34:25.292Z,45.60
2022-08-08T18:36:37.425Z,45.70
2022-08-08T18:39:05.834Z,46.20
2022-08-08T18:41:51.361Z,46.10
2022-08-08T18:44:19.577Z,46.10
2022-08-08T18:46:54.833Z,46.50
2022-08-08T18:49:24.502Z,47.90
2022-08-08T18:51:59.445Z,48.30
2022-08-08T18:54:30.846Z,48.20
2022-08-08T18:56:57.655Z,50.00
2022-08-08T18:59:24.611Z,50.70
2022-08-08T19:02:24.865Z,51.80
2022-08-08T19:04:49.865Z,51.70
2022-08-08T19:07:18.179Z,52.80
2022-08-08T19:09:49.330Z,52.20
2022-08-08T19:12:32.374Z,53.40
2022-08-08T19:15:01.933Z,54.20
2022-08-08T19:17:47.826Z,54.70
2022-08-08T19:20:16.294Z,54.80
2022-08-08T19:22:44.644Z,55.70
2022-08-08T19:26:01.433Z,56.10
2022-08-08T19:28:00.032Z,56.70
2022-08-08T19:30:27.597Z,55.60
2022-08-08T19:32:58.087Z,55.80
2022-08-08T19:35:44.264Z,56.60
2022-08-08T19:38:22.166Z,56.20
2022-08-08T19:40:54.544Z,55.80
2022-08-08T19:43:23.079Z,55.80
2022-08-08T19:45:59.809Z,56.10
2022-08-08T19:48:31.253Z,56.20
2022-08-08T19:51:01.881Z,56.10
2022-08-08T19:53:51.543Z,56.50
2022-08-08T19:56:39.249Z,57.00
2022-08-08T19:59:03.796Z,58.30
2022-08-08T20:02:01.006Z,58.50
2022-08-08T20:04:21.256Z,58.90
2022-08-08T20:06:50.766Z,58.90
2022-08-08T20:09:23.040Z,59.10
2022-08-08T20:11:50.565Z,58.90
2022-08-08T20:14:34.277Z,58.70
2022-08-08T20:17:02.418Z,58.90
2022-08-08T20:19:34.417Z,59.20
2022-08-08T20:22:20.910Z,60.10
2022-08-08T20:24:53.575Z,60.70
2022-08-08T20:27:21.014Z,61.30
2022-08-08T20:30:01.079Z,62.00
2022-08-08T20:32:29.860Z,62.20
2022-08-08T20:35:01.139Z,62.30
2022-08-08T20:37:47.211Z,62.70
2022-08-08T20:40:20.403Z,63.30
2022-08-08T20:43:00.689Z,64.20
2022-08-08T20:45:57.851Z,64.40
2022-08-08T20:48:16.619Z,64.50
2022-08-08T20:50:47.909Z,66.00
2022-08-08T20:53:16.358Z,66.70
2022-08-08T20:55:51.307Z,66.20
2022-08-08T20:58:23.073Z,66.90
2022-08-08T21:00:50.313Z,68.00
2022-08-08T21:03:17.343Z,67.90
2022-08-08T21:05:49.193Z,67.60
2022-08-08T21:08:36.561Z,67.80
2022-08-08T21:11:12.108Z,68.20
2022-08-08T21:13:41.291Z,69.20
2022-08-08T21:16:18.176Z,68.90
2022-08-08T21:18:47.739Z,69.30
2022-08-08T21:21:20.416Z,70.20
2022-08-08T21:24:18.127Z,71.40
2022-08-08T21:26:52.732Z,70.40
2022-08-08T21:29:20.177Z,71.70
2022-08-08T21:31:57.819Z,71.90
2022-08-08T21:34:29.971Z,72.20
2022-08-08T21:36:58.318Z,72.40
2022-08-08T21:39:41.318Z,73.10
2022-08-08T21:42:09.102Z,73.50
2022-08-08T21:44:37.994Z,73.90
2022-08-08T21:48:05.601Z,74.10
2022-08-08T21:50:11.712Z,74.90
2022-08-08T21:54:33.711Z,74.90
2022-08-08T21:56:24.466Z,75.40
2022-08-08T21:58:13.636Z,75.70
2022-08-08T22:00:41.139Z,76.20
2022-08-08T22:03:08.072Z,76.80
2022-08-08T22:05:41.727Z,76.40
2022-08-08T22:08:08.552Z,76.80
2022-08-08T22:10:35.639Z,77.20
2022-08-08T22:13:17.257Z,77.70
2022-08-08T22:15:58.646Z,77.80
2022-08-08T22:18:28.954Z,78.80
2022-08-08T22:20:57.612Z,78.40
2022-08-08T22:23:25.322Z,78.70
2022-08-08T22:26:27.013Z,79.40
2022-08-08T22:29:04.219Z,78.90
2022-08-08T22:31:30.059Z,79.80
2022-08-08T22:34:12.890Z,79.50
2022-08-08T22:36:42.760Z,80.50
2022-08-08T22:39:11.754Z,81.10
2022-08-08T22:41:45.741Z,81.60
2022-08-08T22:44:13.025Z,81.70
2022-08-08T22:46:40.065Z,82.00
2022-08-08T22:49:06.914Z,82.40
2022-08-08T22:51:42.207Z,82.10
2022-08-08T22:54:30.926Z,82.00
2022-08-08T22:57:01.911Z,82.90
2022-08-08T22:59:48.350Z,83.40
2022-08-08T23:02:28.422Z,84.30
2022-08-08T23:05:01.955Z,85.70
2022-08-08T23:07:57.239Z,85.40
2022-08-08T23:10:21.487Z,86.00
2022-08-08T23:12:51.572Z,84.80
2022-08-08T23:16:38.996Z,85.40
2022-08-08T23:18:08.458Z,86.20
2022-08-08T23:20:43.356Z,86.80
2022-08-08T23:23:13.518Z,87.10
2022-08-08T23:25:48.279Z,87.90
2022-08-08T23:28:18.043Z,88.30
2022-08-08T23:30:46.902Z,89.00
2022-08-08T23:33:21.032Z,89.20
2022-08-08T23:36:07.753Z,90.10
2022-08-08T23:38:36.243Z,89.50
2022-08-08T23:41:12.224Z,89.90
2022-08-08T23:43:50.045Z,90.60
2022-08-08T23:49:05.466Z,90.50
2022-08-08T23:49:18.669Z,90.50
2022-08-08T23:52:05.270Z,90.20
2022-08-08T23:54:43.484Z,90.10
2022-08-08T23:57:38.838Z,90.00
